sensor_id;sensor_type;location;lat;lon;timestamp;pressure;altitude;pressure_sealevel;temperature;humidity
9249;BME280;4660;41.768;26.198;2023-01-27T00:00:08;100084.34;;;4.84;100.00
9249;BME280;4660;41.768;26.198;2023-01-27T00:02:36;100102.78;;;4.87;100.00
9249;BME280;4660;41.768;26.198;2023-01-27T00:05:02;100127.25;;;4.92;100.00
9249;BME280;4660;41.768;26.198;2023-01-27T00:07:28;100140.09;;;4.98;100.00
9249;BME280;4660;41.768;26.198;2023-01-27T00:09:53;100116.13;;;4.87;100.00
9249;BME280;4660;41.768;26.198;2023-01-27T00:12:21;100134.75;;;4.98;100.00
9249;BME280;4660;41.768;26.198;2023-01-27T00:15:06;100125.56;;;4.80;100.00
9249;BME280;4660;41.768;26.198;2023-01-27T00:17:33;100159.59;;;4.87;100.00
9249;BME280;4660;41.768;26.198;2023-01-27T00:19:59;100160.91;;;4.82;100.00
9249;BME280;4660;41.768;26.198;2023-01-27T00:22:25;100174.97;;;4.84;100.00
9249;BME280;4660;41.768;26.198;2023-01-27T00:25:09;100182.09;;;4.72;100.00
9249;BME280;4660;41.768;26.198;2023-01-27T00:27:34;100169.38;;;4.64;100.00
9249;BME280;4660;41.768;26.198;2023-01-27T00:30:00;100159.94;;;4.72;100.00
9249;BME280;4660;41.768;26.198;2023-01-27T00:32:28;100160.34;;;4.54;100.00
9249;BME280;4660;41.768;26.198;2023-01-27T00:35:13;100159.63;;;4.52;100.00
9249;BME280;4660;41.768;26.198;2023-01-27T00:37:41;100125.44;;;4.35;100.00
9249;BME280;4660;41.768;26.198;2023-01-27T00:40:07;100146.78;;;4.46;100.00
9249;BME280;4660;41.768;26.198;2023-01-27T00:42:33;100137.03;;;4.34;100.00
9249;BME280;4660;41.768;26.198;2023-01-27T00:44:59;100130.75;;;4.35;100.00
9249;BME280;4660;41.768;26.198;2023-01-27T00:47:43;100151.75;;;4.51;100.00
9249;BME280;4660;41.768;26.198;2023-01-27T00:50:09;100164.69;;;4.44;100.00
9249;BME280;4660;41.768;26.198;2023-01-27T00:52:35;100180.31;;;4.49;100.00
9249;BME280;4660;41.768;26.198;2023-01-27T00:55:00;100186.47;;;4.49;100.00
9249;BME280;4660;41.768;26.198;2023-01-27T00:57:26;100178.72;;;4.46;100.00
9249;BME280;4660;41.768;26.198;2023-01-27T00:59:52;100169.31;;;4.53;100.00
9249;BME280;4660;41.768;26.198;2023-01-27T01:02:17;100165.88;;;4.40;100.00
9249;BME280;4660;41.768;26.198;2023-01-27T01:04:43;100179.63;;;4.58;100.00
9249;BME280;4660;41.768;26.198;2023-01-27T01:07:08;100151.13;;;4.47;100.00
9249;BME280;4660;41.768;26.198;2023-01-27T01:09:34;100154.91;;;4.56;100.00
9249;BME280;4660;41.768;26.198;2023-01-27T01:11:59;100157.69;;;4.54;100.00
9249;BME280;4660;41.768;26.198;2023-01-27T01:14:25;100165.47;;;4.57;100.00
9249;BME280;4660;41.768;26.198;2023-01-27T01:16:51;100161.44;;;4.52;100.00
9249;BME280;4660;41.768;26.198;2023-01-27T01:19:16;100152.16;;;4.57;100.00
9249;BME280;4660;41.768;26.198;2023-01-27T01:21:42;100115.66;;;4.47;100.00
9249;BME280;4660;41.768;26.198;2023-01-27T01:24:07;100100.56;;;4.58;100.00
9249;BME280;4660;41.768;26.198;2023-01-27T01:26:33;100119.91;;;4.49;100.00
9249;BME280;4660;41.768;26.198;2023-01-27T01:28:58;100125.97;;;4.51;100.00
9249;BME280;4660;41.768;26.198;2023-01-27T01:31:24;100098.69;;;4.36;100.00
9249;BME280;4660;41.768;26.198;2023-01-27T01:33:49;100115.53;;;4.48;100.00
9249;BME280;4660;41.768;26.198;2023-01-27T01:36:17;100065.13;;;4.23;100.00
9249;BME280;4660;41.768;26.198;2023-01-27T01:38:44;100071.69;;;4.41;100.00
9249;BME280;4660;41.768;26.198;2023-01-27T01:41:13;100080.91;;;4.37;100.00
9249;BME280;4660;41.768;26.198;2023-01-27T01:43:39;100060.59;;;4.47;100.00
9249;BME280;4660;41.768;26.198;2023-01-27T01:46:08;100078.25;;;4.37;100.00
9249;BME280;4660;41.768;26.198;2023-01-27T01:48:55;100078.38;;;4.47;100.00
9249;BME280;4660;41.768;26.198;2023-01-27T01:51:42;100108.53;;;4.47;100.00
9249;BME280;4660;41.768;26.198;2023-01-27T01:54:26;100094.22;;;4.37;100.00
9249;BME280;4660;41.768;26.198;2023-01-27T01:57:18;100089.03;;;4.47;100.00
9249;BME280;4660;41.768;26.198;2023-01-27T02:00:03;100058.88;;;4.46;100.00
9249;BME280;4660;41.768;26.198;2023-01-27T02:02:31;100053.94;;;4.53;100.00
9249;BME280;4660;41.768;26.198;2023-01-27T02:05:19;100065.81;;;4.60;100.00
9249;BME280;4660;41.768;26.198;2023-01-27T02:10:32;100057.94;;;4.58;100.00
9249;BME280;4660;41.768;26.198;2023-01-27T02:12:57;100051.03;;;4.45;100.00
9249;BME280;4660;41.768;26.198;2023-01-27T02:15:23;100052.22;;;4.40;100.00
9249;BME280;4660;41.768;26.198;2023-01-27T02:17:49;100060.38;;;4.50;100.00
9249;BME280;4660;41.768;26.198;2023-01-27T02:20:33;100055.97;;;4.49;100.00
9249;BME280;4660;41.768;26.198;2023-01-27T02:28:34;100060.78;;;4.33;100.00
9249;BME280;4660;41.768;26.198;2023-01-27T02:30:59;100044.50;;;4.60;100.00
9249;BME280;4660;41.768;26.198;2023-01-27T02:33:25;100046.66;;;4.55;100.00
9249;BME280;4660;41.768;26.198;2023-01-27T02:36:00;100057.69;;;4.61;100.00
9249;BME280;4660;41.768;26.198;2023-01-27T02:38:32;100034.66;;;4.38;100.00
9249;BME280;4660;41.768;26.198;2023-01-27T02:41:03;100053.53;;;4.35;100.00
9249;BME280;4660;41.768;26.198;2023-01-27T02:43:29;100058.63;;;4.38;100.00
9249;BME280;4660;41.768;26.198;2023-01-27T02:45:55;100064.69;;;4.40;100.00
9249;BME280;4660;41.768;26.198;2023-01-27T02:48:20;100060.28;;;4.17;100.00
9249;BME280;4660;41.768;26.198;2023-01-27T02:50:46;100076.75;;;4.22;100.00
9249;BME280;4660;41.768;26.198;2023-01-27T02:53:11;100062.56;;;4.10;100.00
9249;BME280;4660;41.768;26.198;2023-01-27T02:55:37;100064.97;;;4.13;100.00
9249;BME280;4660;41.768;26.198;2023-01-27T02:58:02;100058.59;;;4.16;100.00
9249;BME280;4660;41.768;26.198;2023-01-27T03:00:28;100068.78;;;4.33;100.00
9249;BME280;4660;41.768;26.198;2023-01-27T03:02:53;100073.38;;;4.31;100.00
9249;BME280;4660;41.768;26.198;2023-01-27T03:05:19;100054.44;;;4.11;100.00
9249;BME280;4660;41.768;26.198;2023-01-27T03:07:44;100066.66;;;4.14;100.00
9249;BME280;4660;41.768;26.198;2023-01-27T03:10:10;100068.47;;;4.13;100.00
9249;BME280;4660;41.768;26.198;2023-01-27T03:12:35;100038.25;;;4.14;100.00
9249;BME280;4660;41.768;26.198;2023-01-27T03:15:01;100044.66;;;4.12;100.00
9249;BME280;4660;41.768;26.198;2023-01-27T03:17:45;100036.06;;;4.20;100.00
9249;BME280;4660;41.768;26.198;2023-01-27T03:20:29;100044.06;;;4.20;100.00
9249;BME280;4660;41.768;26.198;2023-01-27T03:22:55;100001.47;;;4.08;100.00
9249;BME280;4660;41.768;26.198;2023-01-27T03:25:20;100006.78;;;4.08;100.00
9249;BME280;4660;41.768;26.198;2023-01-27T03:27:46;100004.59;;;4.02;100.00
9249;BME280;4660;41.768;26.198;2023-01-27T03:30:11;100015.03;;;4.17;100.00
9249;BME280;4660;41.768;26.198;2023-01-27T03:32:37;100024.75;;;4.29;100.00
9249;BME280;4660;41.768;26.198;2023-01-27T03:35:10;100033.22;;;4.45;100.00
9249;BME280;4660;41.768;26.198;2023-01-27T03:37:37;100035.75;;;4.35;100.00
9249;BME280;4660;41.768;26.198;2023-01-27T03:40:20;100021.09;;;4.30;100.00
9249;BME280;4660;41.768;26.198;2023-01-27T03:43:04;100025.22;;;4.23;100.00
9249;BME280;4660;41.768;26.198;2023-01-27T03:45:49;100024.69;;;4.18;100.00
9249;BME280;4660;41.768;26.198;2023-01-27T03:48:34;100034.25;;;4.20;100.00
9249;BME280;4660;41.768;26.198;2023-01-27T03:51:02;100029.19;;;4.28;100.00
9249;BME280;4660;41.768;26.198;2023-01-27T03:53:28;100027.03;;;4.22;100.00
9249;BME280;4660;41.768;26.198;2023-01-27T03:55:54;100022.88;;;4.18;100.00
9249;BME280;4660;41.768;26.198;2023-01-27T03:58:25;100012.63;;;4.25;100.00
9249;BME280;4660;41.768;26.198;2023-01-27T04:00:59;100023.75;;;4.41;100.00
9249;BME280;4660;41.768;26.198;2023-01-27T04:03:29;99978.94;;;4.12;100.00
9249;BME280;4660;41.768;26.198;2023-01-27T04:06:17;100017.25;;;4.45;100.00
9249;BME280;4660;41.768;26.198;2023-01-27T04:09:03;100012.66;;;4.36;100.00
9249;BME280;4660;41.768;26.198;2023-01-27T04:11:29;100000.53;;;4.32;100.00
9249;BME280;4660;41.768;26.198;2023-01-27T04:14:13;99980.19;;;4.31;100.00
9249;BME280;4660;41.768;26.198;2023-01-27T04:16:39;99962.53;;;4.30;100.00
9249;BME280;4660;41.768;26.198;2023-01-27T04:19:06;99956.00;;;4.23;100.00
9249;BME280;4660;41.768;26.198;2023-01-27T04:21:32;99959.84;;;4.19;100.00
9249;BME280;4660;41.768;26.198;2023-01-27T04:23:58;99970.63;;;4.17;100.00
9249;BME280;4660;41.768;26.198;2023-01-27T04:26:24;99985.66;;;4.29;100.00
9249;BME280;4660;41.768;26.198;2023-01-27T04:28:50;100009.22;;;4.34;100.00
9249;BME280;4660;41.768;26.198;2023-01-27T04:31:16;100015.31;;;4.36;100.00
9249;BME280;4660;41.768;26.198;2023-01-27T04:33:43;99977.72;;;4.05;100.00
9249;BME280;4660;41.768;26.198;2023-01-27T04:36:09;99980.25;;;4.07;100.00
9249;BME280;4660;41.768;26.198;2023-01-27T04:38:36;100000.38;;;4.11;100.00
9249;BME280;4660;41.768;26.198;2023-01-27T04:41:02;100006.78;;;4.08;100.00
9249;BME280;4660;41.768;26.198;2023-01-27T04:43:28;99999.53;;;4.10;100.00
9249;BME280;4660;41.768;26.198;2023-01-27T04:45:53;99960.53;;;3.87;100.00
9249;BME280;4660;41.768;26.198;2023-01-27T04:48:19;99998.22;;;4.16;100.00
9249;BME280;4660;41.768;26.198;2023-01-27T04:50:45;99981.13;;;4.07;100.00
9249;BME280;4660;41.768;26.198;2023-01-27T04:53:10;99985.28;;;4.23;100.00
9249;BME280;4660;41.768;26.198;2023-01-27T04:55:36;99974.97;;;4.18;100.00
9249;BME280;4660;41.768;26.198;2023-01-27T04:58:02;99967.34;;;4.13;100.00
9249;BME280;4660;41.768;26.198;2023-01-27T05:00:28;99981.13;;;4.19;100.00
9249;BME280;4660;41.768;26.198;2023-01-27T05:02:53;99989.00;;;4.20;100.00
9249;BME280;4660;41.768;26.198;2023-01-27T05:05:19;99989.63;;;4.24;100.00
9249;BME280;4660;41.768;26.198;2023-01-27T05:07:44;99981.50;;;4.25;100.00
9249;BME280;4660;41.768;26.198;2023-01-27T05:10:10;99974.09;;;4.06;100.00
9249;BME280;4660;41.768;26.198;2023-01-27T05:12:36;99979.41;;;4.06;100.00
9249;BME280;4660;41.768;26.198;2023-01-27T05:15:01;99974.47;;;4.02;100.00
9249;BME280;4660;41.768;26.198;2023-01-27T05:17:31;99963.13;;;4.22;100.00
9249;BME280;4660;41.768;26.198;2023-01-27T05:19:57;99967.59;;;4.22;100.00
9249;BME280;4660;41.768;26.198;2023-01-27T05:22:22;99980.63;;;4.13;100.00
9249;BME280;4660;41.768;26.198;2023-01-27T05:24:48;99981.00;;;4.20;100.00
9249;BME280;4660;41.768;26.198;2023-01-27T05:27:13;99987.34;;;4.30;100.00
9249;BME280;4660;41.768;26.198;2023-01-27T05:29:39;99982.47;;;4.35;100.00
9249;BME280;4660;41.768;26.198;2023-01-27T05:32:04;99982.72;;;4.32;100.00
9249;BME280;4660;41.768;26.198;2023-01-27T05:34:30;99993.03;;;4.37;100.00
9249;BME280;4660;41.768;26.198;2023-01-27T05:36:55;99990.59;;;4.34;100.00
9249;BME280;4660;41.768;26.198;2023-01-27T05:39:21;100003.44;;;4.40;100.00
9249;BME280;4660;41.768;26.198;2023-01-27T05:41:47;99998.22;;;4.27;100.00
9249;BME280;4660;41.768;26.198;2023-01-27T05:44:13;99994.31;;;4.20;100.00
9249;BME280;4660;41.768;26.198;2023-01-27T05:46:40;100005.34;;;4.27;100.00
9249;BME280;4660;41.768;26.198;2023-01-27T05:49:06;100005.34;;;4.27;100.00
9249;BME280;4660;41.768;26.198;2023-01-27T05:51:36;100024.50;;;4.32;100.00
9249;BME280;4660;41.768;26.198;2023-01-27T05:54:04;100041.94;;;4.36;100.00
9249;BME280;4660;41.768;26.198;2023-01-27T05:56:30;100029.34;;;4.38;100.00
9249;BME280;4660;41.768;26.198;2023-01-27T05:58:57;100031.75;;;4.41;100.00
9249;BME280;4660;41.768;26.198;2023-01-27T06:01:27;100019.41;;;4.29;100.00
9249;BME280;4660;41.768;26.198;2023-01-27T06:03:53;100026.94;;;4.46;100.00
9249;BME280;4660;41.768;26.198;2023-01-27T06:06:20;100031.06;;;4.50;100.00
9249;BME280;4660;41.768;26.198;2023-01-27T06:08:46;100024.00;;;4.49;100.00
9249;BME280;4660;41.768;26.198;2023-01-27T06:11:13;100019.28;;;4.41;100.00
9249;BME280;4660;41.768;26.198;2023-01-27T06:13:39;100025.34;;;4.55;100.00
9249;BME280;4660;41.768;26.198;2023-01-27T06:16:07;100033.94;;;4.47;100.00
9249;BME280;4660;41.768;26.198;2023-01-27T06:18:36;100034.53;;;4.39;100.00
9249;BME280;4660;41.768;26.198;2023-01-27T06:21:04;100035.63;;;4.48;100.00
9249;BME280;4660;41.768;26.198;2023-01-27T06:23:30;100016.75;;;4.40;100.00
9249;BME280;4660;41.768;26.198;2023-01-27T06:26:03;100011.31;;;4.53;100.00
9249;BME280;4660;41.768;26.198;2023-01-27T06:28:29;100014.94;;;4.63;100.00
9249;BME280;4660;41.768;26.198;2023-01-27T06:31:23;100011.56;;;4.61;100.00
9249;BME280;4660;41.768;26.198;2023-01-27T06:33:49;100017.00;;;4.48;100.00
9249;BME280;4660;41.768;26.198;2023-01-27T06:36:18;100017.25;;;4.45;100.00
9249;BME280;4660;41.768;26.198;2023-01-27T06:38:44;100011.91;;;4.45;100.00
9249;BME280;4660;41.768;26.198;2023-01-27T06:41:10;100005.25;;;4.39;100.00
9249;BME280;4660;41.768;26.198;2023-01-27T06:43:36;100002.47;;;4.41;100.00
9249;BME280;4660;41.768;26.198;2023-01-27T06:46:02;100015.53;;;4.33;100.00
9249;BME280;4660;41.768;26.198;2023-01-27T06:48:27;100012.38;;;4.28;100.00
9249;BME280;4660;41.768;26.198;2023-01-27T06:50:54;100021.09;;;4.41;100.00
9249;BME280;4660;41.768;26.198;2023-01-27T06:53:20;100026.69;;;4.49;100.00
9249;BME280;4660;41.768;26.198;2023-01-27T06:55:46;100017.50;;;4.53;100.00
9249;BME280;4660;41.768;26.198;2023-01-27T06:58:13;100033.13;;;4.69;100.00
9249;BME280;4660;41.768;26.198;2023-01-27T07:00:39;100031.69;;;4.65;100.00
9249;BME280;4660;41.768;26.198;2023-01-27T07:03:05;100008.91;;;4.61;100.00
9249;BME280;4660;41.768;26.198;2023-01-27T07:05:32;100016.16;;;4.59;100.00
9249;BME280;4660;41.768;26.198;2023-01-27T07:07:58;100003.94;;;4.56;100.00
9249;BME280;4660;41.768;26.198;2023-01-27T07:10:24;99998.22;;;4.38;100.00
9249;BME280;4660;41.768;26.198;2023-01-27T07:12:50;99996.16;;;4.31;100.00
9249;BME280;4660;41.768;26.198;2023-01-27T07:15:17;99993.75;;;4.39;100.00
9249;BME280;4660;41.768;26.198;2023-01-27T07:17:43;99992.78;;;4.29;100.00
9249;BME280;4660;41.768;26.198;2023-01-27T07:20:11;100000.19;;;4.36;100.00
9249;BME280;4660;41.768;26.198;2023-01-27T07:22:37;99997.38;;;4.38;100.00
9249;BME280;4660;41.768;26.198;2023-01-27T07:25:05;100002.56;;;4.28;100.00
9249;BME280;4660;41.768;26.198;2023-01-27T07:27:31;100000.78;;;4.29;100.00
9249;BME280;4660;41.768;26.198;2023-01-27T07:29:57;100007.53;;;4.22;100.00
9249;BME280;4660;41.768;26.198;2023-01-27T07:32:22;100005.00;;;4.31;100.00
9249;BME280;4660;41.768;26.198;2023-01-27T07:34:49;99995.44;;;4.40;100.00
9249;BME280;4660;41.768;26.198;2023-01-27T07:37:15;99996.16;;;4.31;100.00
9249;BME280;4660;41.768;26.198;2023-01-27T07:39:41;99993.25;;;4.23;100.00
9249;BME280;4660;41.768;26.198;2023-01-27T07:42:07;99981.13;;;4.19;100.00
9249;BME280;4660;41.768;26.198;2023-01-27T07:44:33;99981.97;;;4.19;100.00
9249;BME280;4660;41.768;26.198;2023-01-27T07:46:59;99977.97;;;4.13;100.00
9249;BME280;4660;41.768;26.198;2023-01-27T07:49:25;99979.91;;;4.11;100.00
9249;BME280;4660;41.768;26.198;2023-01-27T07:51:51;99966.59;;;4.11;100.00
9249;BME280;4660;41.768;26.198;2023-01-27T07:54:16;99966.00;;;4.19;100.00
9249;BME280;4660;41.768;26.198;2023-01-27T07:56:43;99961.78;;;4.17;100.00
9249;BME280;4660;41.768;26.198;2023-01-27T07:59:11;99959.25;;;4.26;100.00
9249;BME280;4660;41.768;26.198;2023-01-27T08:01:37;99946.16;;;4.34;100.00
9249;BME280;4660;41.768;26.198;2023-01-27T08:04:03;99955.50;;;4.29;100.00
9249;BME280;4660;41.768;26.198;2023-01-27T08:06:29;99958.19;;;4.29;100.00
9249;BME280;4660;41.768;26.198;2023-01-27T08:08:54;99966.63;;;4.34;100.00
9249;BME280;4660;41.768;26.198;2023-01-27T08:11:20;99968.59;;;4.54;100.00
9249;BME280;4660;41.768;26.198;2023-01-27T08:13:45;99952.72;;;4.41;100.00
9249;BME280;4660;41.768;26.198;2023-01-27T08:16:13;99957.06;;;4.42;100.00
9249;BME280;4660;41.768;26.198;2023-01-27T08:18:39;99972.47;;;4.50;100.00
9249;BME280;4660;41.768;26.198;2023-01-27T08:21:08;99969.06;;;4.59;100.00
9249;BME280;4660;41.768;26.198;2023-01-27T08:23:34;99976.44;;;4.67;100.00
9249;BME280;4660;41.768;26.198;2023-01-27T08:26:01;99974.00;;;4.64;100.00
9249;BME280;4660;41.768;26.198;2023-01-27T08:28:29;99980.44;;;4.61;100.00
9249;BME280;4660;41.768;26.198;2023-01-27T08:31:07;99969.81;;;4.50;100.00
9249;BME280;4660;41.768;26.198;2023-01-27T08:33:33;99966.16;;;4.51;100.00
9249;BME280;4660;41.768;26.198;2023-01-27T08:36:09;99979.84;;;4.69;100.00
9249;BME280;4660;41.768;26.198;2023-01-27T08:38:35;99982.13;;;4.74;100.00
9249;BME280;4660;41.768;26.198;2023-01-27T08:41:07;99987.69;;;4.70;100.00
9249;BME280;4660;41.768;26.198;2023-01-27T08:43:36;99971.84;;;4.47;100.00
9249;BME280;4660;41.768;26.198;2023-01-27T08:46:02;99963.97;;;4.56;100.00
9249;BME280;4660;41.768;26.198;2023-01-27T08:48:29;99983.84;;;4.75;100.00
9249;BME280;4660;41.768;26.198;2023-01-27T08:50:56;99974.00;;;4.64;100.00
9249;BME280;4660;41.768;26.198;2023-01-27T08:53:22;99983.94;;;4.84;100.00
9249;BME280;4660;41.768;26.198;2023-01-27T08:55:48;99993.53;;;4.76;100.00
9249;BME280;4660;41.768;26.198;2023-01-27T08:58:14;99995.22;;;4.77;100.00
9249;BME280;4660;41.768;26.198;2023-01-27T09:00:46;100001.88;;;4.93;100.00
9249;BME280;4660;41.768;26.198;2023-01-27T09:03:11;100000.78;;;4.85;100.00
9249;BME280;4660;41.768;26.198;2023-01-27T09:05:38;99983.56;;;4.78;100.00
9249;BME280;4660;41.768;26.198;2023-01-27T09:08:04;99996.28;;;4.96;100.00
9249;BME280;4660;41.768;26.198;2023-01-27T09:12:58;99923.31;;;4.43;100.00
9249;BME280;4660;41.768;26.198;2023-01-27T09:15:25;99988.81;;;4.79;100.00
9249;BME280;4660;41.768;26.198;2023-01-27T09:17:51;99974.38;;;4.70;100.00
9249;BME280;4660;41.768;26.198;2023-01-27T09:20:16;99976.91;;;4.83;100.00
9249;BME280;4660;41.768;26.198;2023-01-27T09:22:42;99973.63;;;4.91;100.00
9249;BME280;4660;41.768;26.198;2023-01-27T09:25:12;99969.41;;;4.88;100.00
9249;BME280;4660;41.768;26.198;2023-01-27T09:27:39;99968.78;;;4.85;100.00
9249;BME280;4660;41.768;26.198;2023-01-27T09:30:05;99945.91;;;4.82;100.00
9249;BME280;4660;41.768;26.198;2023-01-27T09:32:30;99967.81;;;4.97;100.00
9249;BME280;4660;41.768;26.198;2023-01-27T09:34:56;99964.31;;;4.85;100.00
9249;BME280;4660;41.768;26.198;2023-01-27T09:37:22;99956.31;;;4.85;100.00
9249;BME280;4660;41.768;26.198;2023-01-27T09:39:51;99948.66;;;5.03;100.00
9249;BME280;4660;41.768;26.198;2023-01-27T09:45:06;99938.09;;;5.13;100.00
9249;BME280;4660;41.768;26.198;2023-01-27T09:50:41;99925.59;;;5.13;100.00
9249;BME280;4660;41.768;26.198;2023-01-27T10:06:33;99908.94;;;5.32;100.00
9249;BME280;4660;41.768;26.198;2023-01-27T10:09:25;99911.13;;;5.27;100.00
9249;BME280;4660;41.768;26.198;2023-01-27T10:17:12;99887.34;;;5.35;100.00
9249;BME280;4660;41.768;26.198;2023-01-27T10:25:25;99867.50;;;5.49;100.00
9249;BME280;4660;41.768;26.198;2023-01-27T10:27:57;99870.91;;;5.51;100.00
9249;BME280;4660;41.768;26.198;2023-01-27T10:30:29;99876.25;;;5.51;100.00
9249;BME280;4660;41.768;26.198;2023-01-27T10:36:01;99876.91;;;5.43;100.00
9249;BME280;4660;41.768;26.198;2023-01-27T10:38:43;99872.06;;;5.58;100.00
9249;BME280;4660;41.768;26.198;2023-01-27T10:41:20;99856.13;;;5.47;100.00
9249;BME280;4660;41.768;26.198;2023-01-27T10:44:18;99851.06;;;5.65;100.00
9249;BME280;4660;41.768;26.198;2023-01-27T10:52:04;99854.25;;;5.79;100.00
9249;BME280;4660;41.768;26.198;2023-01-27T10:57:17;99845.78;;;5.74;100.00
9249;BME280;4660;41.768;26.198;2023-01-27T11:02:39;99836.25;;;5.82;100.00
9249;BME280;4660;41.768;26.198;2023-01-27T11:05:17;99839.63;;;5.84;100.00
9249;BME280;4660;41.768;26.198;2023-01-27T11:08:04;99818.56;;;5.80;100.00
9249;BME280;4660;41.768;26.198;2023-01-27T11:10:44;99841.72;;;6.01;100.00
9249;BME280;4660;41.768;26.198;2023-01-27T11:13:30;99851.84;;;6.07;100.00
9249;BME280;4660;41.768;26.198;2023-01-27T11:15:58;99845.66;;;6.06;100.00
9249;BME280;4660;41.768;26.198;2023-01-27T11:18:27;99854.53;;;6.07;100.00
9249;BME280;4660;41.768;26.198;2023-01-27T11:21:23;99851.16;;;6.05;100.00
9249;BME280;4660;41.768;26.198;2023-01-27T11:23:53;99829.41;;;5.89;100.00
9249;BME280;4660;41.768;26.198;2023-01-27T11:26:39;99824.00;;;6.00;100.00
9249;BME280;4660;41.768;26.198;2023-01-27T11:35:11;99843.44;;;6.12;100.00
9249;BME280;4660;41.768;26.198;2023-01-27T11:37:42;99828.97;;;6.14;100.00
9249;BME280;4660;41.768;26.198;2023-01-27T11:40:29;99835.91;;;6.26;100.00
9249;BME280;4660;41.768;26.198;2023-01-27T11:42:56;99820.72;;;6.17;100.00
9249;BME280;4660;41.768;26.198;2023-01-27T11:45:26;99837.88;;;6.24;100.00
9249;BME280;4660;41.768;26.198;2023-01-27T11:47:58;99827.19;;;6.15;100.00
9249;BME280;4660;41.768;26.198;2023-01-27T11:50:28;99816.78;;;6.21;100.00
9249;BME280;4660;41.768;26.198;2023-01-27T11:53:19;99834.00;;;6.38;100.00
9249;BME280;4660;41.768;26.198;2023-01-27T11:55:50;99841.41;;;6.34;100.00
9249;BME280;4660;41.768;26.198;2023-01-27T11:58:48;99825.13;;;6.38;100.00
9249;BME280;4660;41.768;26.198;2023-01-27T12:01:18;99833.75;;;6.51;100.00
9249;BME280;4660;41.768;26.198;2023-01-27T12:04:10;99827.56;;;6.60;100.00
9249;BME280;4660;41.768;26.198;2023-01-27T12:06:45;99829.81;;;6.55;100.00
9249;BME280;4660;41.768;26.198;2023-01-27T12:09:30;99832.78;;;6.71;100.00
9249;BME280;4660;41.768;26.198;2023-01-27T12:14:52;99826.34;;;6.83;100.00
9249;BME280;4660;41.768;26.198;2023-01-27T12:19:56;99829.00;;;6.74;100.00
9249;BME280;4660;41.768;26.198;2023-01-27T12:22:35;99828.31;;;6.72;100.00
9249;BME280;4660;41.768;26.198;2023-01-27T12:25:04;99817.47;;;6.73;100.00
9249;BME280;4660;41.768;26.198;2023-01-27T12:27:47;99802.94;;;6.56;100.00
9249;BME280;4660;41.768;26.198;2023-01-27T12:30:21;99823.06;;;6.60;100.00
9249;BME280;4660;41.768;26.198;2023-01-27T12:32:47;99815.19;;;6.59;100.00
9249;BME280;4660;41.768;26.198;2023-01-27T12:35:22;99815.75;;;6.62;100.00
9249;BME280;4660;41.768;26.198;2023-01-27T12:37:54;99809.72;;;6.60;100.00
9249;BME280;4660;41.768;26.198;2023-01-27T12:40:23;99814.94;;;6.91;100.00
9249;BME280;4660;41.768;26.198;2023-01-27T12:43:08;99807.38;;;6.86;100.00
9249;BME280;4660;41.768;26.198;2023-01-27T12:45:39;99806.94;;;6.81;100.00
9249;BME280;4660;41.768;26.198;2023-01-27T12:55:44;99834.09;;;6.86;100.00
9249;BME280;4660;41.768;26.198;2023-01-27T13:06:33;99833.09;;;6.87;100.00
9249;BME280;4660;41.768;26.198;2023-01-27T13:09:02;99776.66;;;6.61;100.00
9249;BME280;4660;41.768;26.198;2023-01-27T13:11:38;99807.91;;;6.80;100.00
9249;BME280;4660;41.768;26.198;2023-01-27T13:14:15;99805.94;;;6.82;100.00
9249;BME280;4660;41.768;26.198;2023-01-27T13:16:50;99808.06;;;6.88;100.00
9249;BME280;4660;41.768;26.198;2023-01-27T13:19:16;99814.09;;;6.90;100.00
9249;BME280;4660;41.768;26.198;2023-01-27T13:21:44;99812.41;;;6.89;100.00
9249;BME280;4660;41.768;26.198;2023-01-27T13:24:23;99798.63;;;6.65;100.00
9249;BME280;4660;41.768;26.198;2023-01-27T13:26:53;99820.84;;;6.75;100.00
9249;BME280;4660;41.768;26.198;2023-01-27T13:29:24;99804.25;;;6.72;100.00
9249;BME280;4660;41.768;26.198;2023-01-27T13:32:31;99822.81;;;6.83;100.00
9249;BME280;4660;41.768;26.198;2023-01-27T13:35:23;99805.09;;;6.82;100.00
9249;BME280;4660;41.768;26.198;2023-01-27T13:37:59;99824.34;;;6.85;100.00
9249;BME280;4660;41.768;26.198;2023-01-27T13:40:36;99824.94;;;6.89;100.00
9249;BME280;4660;41.768;26.198;2023-01-27T13:43:28;99823.66;;;6.83;100.00
9249;BME280;4660;41.768;26.198;2023-01-27T13:46:12;99816.34;;;6.85;100.00
9249;BME280;4660;41.768;26.198;2023-01-27T13:48:45;99821.69;;;6.85;100.00
9249;BME280;4660;41.768;26.198;2023-01-27T13:51:21;99817.63;;;6.91;100.00
9249;BME280;4660;41.768;26.198;2023-01-27T13:53:57;99828.16;;;6.93;100.00
9249;BME280;4660;41.768;26.198;2023-01-27T13:57:06;99815.50;;;7.14;100.00
9249;BME280;4660;41.768;26.198;2023-01-27T14:15:28;99827.22;;;6.94;100.00
9249;BME280;4660;41.768;26.198;2023-01-27T14:20:59;99834.94;;;7.06;100.00
9249;BME280;4660;41.768;26.198;2023-01-27T14:24:13;99827.06;;;6.95;100.00
9249;BME280;4660;41.768;26.198;2023-01-27T14:29:39;99811.88;;;6.86;100.00
9249;BME280;4660;41.768;26.198;2023-01-27T14:41:04;99825.50;;;6.93;100.00
9249;BME280;4660;41.768;26.198;2023-01-27T14:43:53;99835.22;;;6.94;100.00
9249;BME280;4660;41.768;26.198;2023-01-27T14:51:46;99822.53;;;6.76;100.00
9249;BME280;4660;41.768;26.198;2023-01-27T15:10:42;99813.94;;;6.63;100.00
9249;BME280;4660;41.768;26.198;2023-01-27T15:13:36;99824.31;;;6.56;100.00
9249;BME280;4660;41.768;26.198;2023-01-27T15:24:08;99850.94;;;6.68;100.00
9249;BME280;4660;41.768;26.198;2023-01-27T15:26:37;99849.41;;;6.75;100.00
9249;BME280;4660;41.768;26.198;2023-01-27T15:29:04;99846.16;;;6.71;100.00
9249;BME280;4660;41.768;26.198;2023-01-27T15:31:30;99844.91;;;6.75;100.00
9249;BME280;4660;41.768;26.198;2023-01-27T15:34:13;99849.13;;;6.78;100.00
9249;BME280;4660;41.768;26.198;2023-01-27T15:36:58;99849.84;;;6.89;100.00
9249;BME280;4660;41.768;26.198;2023-01-27T15:39:24;99850.97;;;6.87;100.00
9249;BME280;4660;41.768;26.198;2023-01-27T15:41:50;99849.84;;;6.80;100.00
9249;BME280;4660;41.768;26.198;2023-01-27T15:44:24;99853.34;;;6.80;100.00